createdAt,value
2022-10-30T00:01:01.789Z,11.90
2022-10-30T00:03:30.275Z,25.53
2022-10-30T00:05:58.543Z,16.33
2022-10-30T00:08:26.875Z,12.80
2022-10-30T00:10:55.094Z,13.33
2022-10-30T00:13:23.395Z,16.67
2022-10-30T00:15:53.431Z,6.20
2022-10-30T00:18:22.913Z,9.87
2022-10-30T00:20:51.116Z,16.17
2022-10-30T00:23:20.426Z,9.77
2022-10-30T00:25:48.768Z,16.03
2022-10-30T00:28:16.771Z,10.10
2022-10-30T00:30:44.794Z,16.50
2022-10-30T00:33:12.931Z,9.57
2022-10-30T00:35:49.263Z,13.43
2022-10-30T00:38:17.670Z,13.53
2022-10-30T00:40:45.770Z,15.40
2022-10-30T00:43:29.028Z,10.03
2022-10-30T00:45:58.196Z,18.67
2022-10-30T00:48:27.555Z,16.83
2022-10-30T00:50:59.190Z,13.73
2022-10-30T00:53:28.079Z,13.47
2022-10-30T00:55:59.059Z,11.67
2022-10-30T00:58:30.935Z,12.40
2022-10-30T01:01:02.308Z,11.50
2022-10-30T01:03:31.187Z,10.43
2022-10-30T01:06:03.899Z,15.40
2022-10-30T01:08:32.484Z,11.30
2022-10-30T01:11:01.632Z,13.33
2022-10-30T01:13:30.680Z,15.70
2022-10-30T01:16:15.322Z,20.60
2022-10-30T01:18:49.239Z,9.87
2022-10-30T01:21:30.416Z,11.03
2022-10-30T01:24:13.428Z,13.40
2022-10-30T01:26:49.892Z,10.60
2022-10-30T01:29:28.227Z,16.63
2022-10-30T01:32:11.226Z,11.67
2022-10-30T01:34:44.661Z,17.87
2022-10-30T01:37:18.969Z,20.23
2022-10-30T01:39:47.232Z,15.20
2022-10-30T01:42:53.972Z,13.17
2022-10-30T01:45:28.100Z,13.73
2022-10-30T01:48:11.202Z,12.53
2022-10-30T01:50:46.515Z,15.83
2022-10-30T01:53:24.266Z,11.37
2022-10-30T01:55:58.093Z,7.53
2022-10-30T01:58:29.789Z,12.73
2022-10-30T02:00:59.775Z,13.17
2022-10-30T02:03:28.226Z,14.27
2022-10-30T02:05:56.345Z,14.00
2022-10-30T02:08:26.214Z,19.60
2022-10-30T02:10:54.920Z,15.77
2022-10-30T02:13:23.159Z,13.70
2022-10-30T02:15:51.374Z,16.47
2022-10-30T02:18:19.440Z,7.03
2022-10-30T02:20:49.419Z,14.40
2022-10-30T02:23:19.171Z,18.63
2022-10-30T02:25:47.437Z,22.33
2022-10-30T02:28:15.515Z,10.23
2022-10-30T02:30:44.997Z,12.97
2022-10-30T02:33:13.232Z,14.57
2022-10-30T02:35:41.524Z,14.70
2022-10-30T02:38:11.155Z,17.53
2022-10-30T02:40:39.147Z,11.03
2022-10-30T02:43:07.543Z,10.93
2022-10-30T02:45:36.048Z,19.50
2022-10-30T02:48:04.680Z,18.03
2022-10-30T02:50:33.004Z,13.70
2022-10-30T02:53:01.445Z,11.27
2022-10-30T02:55:31.188Z,15.77
2022-10-30T02:57:59.434Z,20.83
2022-10-30T03:00:27.567Z,17.17
2022-10-30T03:02:58.613Z,11.50
2022-10-30T03:05:27.183Z,11.53
2022-10-30T03:07:56.323Z,16.10
2022-10-30T03:10:25.039Z,10.37
2022-10-30T03:12:54.559Z,16.53
2022-10-30T03:15:23.177Z,21.87
2022-10-30T03:17:52.957Z,8.83
2022-10-30T03:20:21.849Z,10.97
2022-10-30T03:22:50.010Z,19.53
2022-10-30T03:25:23.822Z,10.23
2022-10-30T03:27:52.479Z,21.53
2022-10-30T03:30:22.178Z,15.73
2022-10-30T03:32:50.335Z,18.43
2022-10-30T03:35:25.362Z,14.80
2022-10-30T03:37:54.566Z,12.17
2022-10-30T03:40:22.570Z,10.60
2022-10-30T03:42:50.994Z,9.47
2022-10-30T03:45:19.177Z,14.30
2022-10-30T03:47:48.838Z,10.30
2022-10-30T03:50:17.122Z,10.43
2022-10-30T03:52:45.144Z,13.27
2022-10-30T03:55:13.443Z,9.70
2022-10-30T03:57:41.567Z,6.63
2022-10-30T04:00:10.778Z,12.00
2022-10-30T04:02:39.480Z,17.23
2022-10-30T04:05:09.915Z,14.63
2022-10-30T04:07:38.195Z,13.90
2022-10-30T04:10:06.956Z,14.97
2022-10-30T04:12:35.294Z,16.70
2022-10-30T04:15:03.508Z,19.47
2022-10-30T04:17:31.737Z,15.83
2022-10-30T04:19:59.996Z,9.33
2022-10-30T04:22:29.493Z,21.13
2022-10-30T04:24:57.772Z,23.37
2022-10-30T04:27:26.214Z,14.87
2022-10-30T04:29:54.901Z,17.90
2022-10-30T04:32:23.823Z,9.80
2022-10-30T04:34:53.496Z,11.13
2022-10-30T04:37:21.652Z,20.67
2022-10-30T04:39:52.026Z,8.10
2022-10-30T04:42:20.118Z,12.13
2022-10-30T04:44:48.237Z,21.33
2022-10-30T04:47:17.490Z,20.73
2022-10-30T04:49:45.666Z,10.30
2022-10-30T04:52:13.683Z,21.97
2022-10-30T04:54:41.717Z,14.50
2022-10-30T04:57:11.282Z,18.57
2022-10-30T04:59:39.322Z,13.53
2022-10-30T05:02:07.668Z,14.60
2022-10-30T05:04:36.108Z,14.57
2022-10-30T05:07:04.812Z,10.10
2022-10-30T05:09:33.164Z,18.73
2022-10-30T05:12:01.173Z,17.03
2022-10-30T05:14:31.800Z,7.20
2022-10-30T05:17:00.153Z,9.80
2022-10-30T05:19:28.257Z,18.60
2022-10-30T05:21:57.372Z,32.23
2022-10-30T05:24:25.630Z,8.33
2022-10-30T05:26:53.667Z,8.80
2022-10-30T05:29:21.923Z,8.33
2022-10-30T05:31:51.779Z,14.37
2022-10-30T05:34:20.540Z,11.47
2022-10-30T05:36:48.561Z,14.50
2022-10-30T05:39:16.617Z,17.27
2022-10-30T05:41:44.744Z,18.57
2022-10-30T05:44:13.093Z,18.93
2022-10-30T05:46:42.799Z,26.60
2022-10-30T05:49:12.280Z,24.20
2022-10-30T05:51:40.699Z,10.83
2022-10-30T05:54:09.047Z,13.90
2022-10-30T05:56:37.929Z,16.30
2022-10-30T05:59:06.020Z,15.23
2022-10-30T06:01:34.608Z,11.70
2022-10-30T06:04:02.856Z,12.10
2022-10-30T06:06:34.056Z,10.63
2022-10-30T06:09:02.201Z,18.90
2022-10-30T06:11:30.354Z,12.53
2022-10-30T06:13:58.513Z,21.03
2022-10-30T06:16:27.032Z,14.23
2022-10-30T06:18:55.492Z,15.60
2022-10-30T06:21:23.555Z,15.07
2022-10-30T06:23:53.032Z,20.20
2022-10-30T06:26:21.101Z,13.77
2022-10-30T06:28:49.129Z,12.40
2022-10-30T06:31:17.386Z,16.80
2022-10-30T06:33:45.874Z,11.93
2022-10-30T06:36:14.172Z,11.93
2022-10-30T06:38:42.915Z,16.60
2022-10-30T06:41:12.336Z,16.37
2022-10-30T06:43:40.765Z,15.50
2022-10-30T06:46:08.801Z,13.20
2022-10-30T06:48:36.825Z,26.63
2022-10-30T06:51:05.463Z,13.33
2022-10-30T06:53:34.234Z,14.83
2022-10-30T06:56:03.347Z,22.00
2022-10-30T06:58:38.997Z,16.47
2022-10-30T07:01:08.452Z,21.93
2022-10-30T07:03:36.743Z,27.47
2022-10-30T07:06:05.065Z,36.90
2022-10-30T07:08:33.591Z,35.67
2022-10-30T07:11:01.673Z,28.07
2022-10-30T07:13:29.707Z,16.97
2022-10-30T07:15:59.987Z,13.47
2022-10-30T07:18:28.016Z,10.07
2022-10-30T07:20:57.344Z,13.80
2022-10-30T07:23:25.860Z,7.87
2022-10-30T07:25:55.522Z,13.60
2022-10-30T07:28:25.413Z,15.93
2022-10-30T07:30:53.415Z,19.30
2022-10-30T07:33:24.466Z,13.03
2022-10-30T07:35:52.814Z,11.87
2022-10-30T07:38:20.832Z,11.60
2022-10-30T07:40:53.612Z,8.07
2022-10-30T07:43:21.884Z,11.20
2022-10-30T07:45:50.076Z,15.27
2022-10-30T07:48:18.773Z,9.30
2022-10-30T07:50:48.440Z,15.50
2022-10-30T07:53:16.537Z,9.77
2022-10-30T07:55:45.333Z,12.40
2022-10-30T07:58:13.804Z,12.30
2022-10-30T08:00:42.473Z,9.63
2022-10-30T08:03:12.293Z,13.20
2022-10-30T08:05:40.427Z,9.63
2022-10-30T08:08:10.302Z,9.43
2022-10-30T08:10:38.690Z,12.40
2022-10-30T08:13:06.949Z,9.27
2022-10-30T08:15:35.875Z,16.17
2022-10-30T08:18:03.926Z,11.63
2022-10-30T08:20:32.256Z,20.37
2022-10-30T08:23:00.939Z,13.43
2022-10-30T08:25:31.993Z,14.80
2022-10-30T08:28:01.971Z,13.60
2022-10-30T08:30:31.819Z,12.83
2022-10-30T08:33:00.856Z,18.20
2022-10-30T08:35:29.728Z,9.50
2022-10-30T08:37:59.456Z,8.57
2022-10-30T08:43:05.448Z,16.23
2022-10-30T08:45:33.842Z,12.40
2022-10-30T08:48:03.610Z,16.43
2022-10-30T08:50:32.756Z,16.17
2022-10-30T08:53:03.304Z,6.90
2022-10-30T08:55:31.870Z,13.93
2022-10-30T08:58:00.138Z,8.13
2022-10-30T09:00:30.009Z,13.67
2022-10-30T09:02:58.603Z,12.77
2022-10-30T09:05:27.133Z,14.87
2022-10-30T09:07:58.418Z,13.33
2022-10-30T09:10:26.737Z,10.43
2022-10-30T09:12:58.130Z,9.27
2022-10-30T09:15:27.224Z,12.93
2022-10-30T09:18:00.765Z,14.93
2022-10-30T09:20:30.150Z,13.33
2022-10-30T09:22:58.674Z,12.83
2022-10-30T09:25:27.297Z,10.40
2022-10-30T09:27:55.483Z,16.27
2022-10-30T09:30:23.808Z,15.90
2022-10-30T09:32:56.452Z,12.27
2022-10-30T09:35:26.663Z,12.23
2022-10-30T09:37:54.772Z,12.23
2022-10-30T09:40:25.811Z,20.63
2022-10-30T09:42:53.994Z,10.83
2022-10-30T09:45:41.418Z,25.10
2022-10-30T09:48:38.868Z,10.70
2022-10-30T09:51:15.791Z,16.90
2022-10-30T09:53:53.630Z,12.97
2022-10-30T09:56:26.067Z,9.80
2022-10-30T09:59:01.164Z,12.10
2022-10-30T10:01:32.859Z,7.33
2022-10-30T10:04:09.919Z,13.90
2022-10-30T10:06:41.213Z,18.37
2022-10-30T10:09:15.528Z,8.60
2022-10-30T10:11:46.850Z,12.90
2022-10-30T10:14:20.254Z,14.17
2022-10-30T10:16:53.014Z,19.03
2022-10-30T10:19:22.648Z,9.17
2022-10-30T10:21:59.262Z,13.23
2022-10-30T10:24:30.254Z,11.30
2022-10-30T10:27:01.902Z,19.53
2022-10-30T10:29:34.616Z,14.07
2022-10-30T10:32:28.118Z,12.37
2022-10-30T10:35:22.314Z,19.70
2022-10-30T10:37:57.064Z,11.67
2022-10-30T10:40:37.882Z,16.90
2022-10-30T10:43:15.035Z,11.47
2022-10-30T10:45:53.020Z,11.43
2022-10-30T10:48:45.443Z,13.60
2022-10-30T10:51:16.313Z,12.67
2022-10-30T10:53:48.314Z,11.43
2022-10-30T10:56:17.273Z,10.53
2022-10-30T10:58:50.457Z,16.73
2022-10-30T11:01:21.668Z,12.30
2022-10-30T11:03:56.803Z,12.13
2022-10-30T11:06:27.479Z,10.57
2022-10-30T11:09:02.391Z,10.10
2022-10-30T11:11:30.563Z,38.40
2022-10-30T11:13:58.662Z,14.50
2022-10-30T11:16:32.827Z,14.17
2022-10-30T11:19:02.658Z,22.23
2022-10-30T11:21:33.148Z,13.50
2022-10-30T11:24:02.623Z,11.07
2022-10-30T11:26:35.391Z,10.90
2022-10-30T11:29:06.602Z,10.00
2022-10-30T11:31:38.114Z,8.50
2022-10-30T11:34:24.911Z,17.37
2022-10-30T11:36:54.067Z,12.63
2022-10-30T11:39:24.894Z,14.50
2022-10-30T11:41:58.390Z,7.57
2022-10-30T11:44:29.218Z,13.70
2022-10-30T11:46:57.687Z,9.70
2022-10-30T11:49:28.772Z,15.23
2022-10-30T11:51:57.047Z,12.10
2022-10-30T11:54:26.789Z,17.03
2022-10-30T11:56:55.333Z,14.80
2022-10-30T11:59:25.632Z,11.17
2022-10-30T12:02:02.153Z,14.20
2022-10-30T12:04:33.206Z,10.23
2022-10-30T12:07:19.970Z,14.67
2022-10-30T12:09:49.629Z,15.97
2022-10-30T12:12:23.937Z,14.57
2022-10-30T12:14:52.573Z,10.80
2022-10-30T12:17:22.466Z,8.30
2022-10-30T12:19:52.129Z,15.83
2022-10-30T12:22:29.521Z,10.83
2022-10-30T12:25:00.012Z,15.60
2022-10-30T12:27:28.663Z,16.73
2022-10-30T12:30:09.550Z,11.77
2022-10-30T12:32:45.230Z,16.93
2022-10-30T12:35:24.192Z,14.80
2022-10-30T12:37:55.770Z,14.40
2022-10-30T12:40:29.647Z,15.67
2022-10-30T12:43:06.482Z,18.40
2022-10-30T12:45:38.490Z,17.07
2022-10-30T12:48:11.772Z,15.20
2022-10-30T12:50:44.758Z,17.50
2022-10-30T12:53:23.661Z,13.77
2022-10-30T12:55:57.305Z,9.17
2022-10-30T12:58:33.219Z,16.07
2022-10-30T13:01:04.234Z,11.27
2022-10-30T13:03:37.542Z,9.97
2022-10-30T13:06:12.102Z,9.60
2022-10-30T13:08:47.201Z,11.20
2022-10-30T13:11:24.558Z,12.03
2022-10-30T13:13:54.333Z,13.90
2022-10-30T13:16:25.189Z,10.40
2022-10-30T13:18:56.290Z,12.00
2022-10-30T13:21:31.491Z,10.10
2022-10-30T13:24:04.250Z,11.57
2022-10-30T13:26:37.932Z,8.17
2022-10-30T13:29:15.483Z,9.77
2022-10-30T13:31:56.859Z,13.33
2022-10-30T13:34:34.511Z,18.30
2022-10-30T13:37:07.056Z,9.17
2022-10-30T13:39:40.243Z,10.20
2022-10-30T13:42:22.953Z,11.40
2022-10-30T13:45:02.821Z,18.17
2022-10-30T13:47:38.570Z,17.23
2022-10-30T13:50:17.199Z,12.67
2022-10-30T13:52:50.016Z,12.10
2022-10-30T13:55:22.722Z,13.67
2022-10-30T13:57:57.028Z,19.00
2022-10-30T14:00:28.216Z,15.17
2022-10-30T14:03:30.510Z,18.63
2022-10-30T14:06:05.932Z,22.90
2022-10-30T14:08:38.032Z,17.23
2022-10-30T14:11:07.096Z,13.60
2022-10-30T14:13:49.634Z,14.17
2022-10-30T14:16:42.575Z,12.40
2022-10-30T14:19:11.739Z,12.60
2022-10-30T14:21:59.026Z,13.93
2022-10-30T14:24:29.644Z,9.77
2022-10-30T14:27:11.170Z,9.17
2022-10-30T14:29:50.010Z,10.40
2022-10-30T14:32:40.905Z,12.00
2022-10-30T14:35:33.205Z,10.23
2022-10-30T14:38:17.236Z,13.77
2022-10-30T14:40:50.003Z,19.60
2022-10-30T14:43:22.777Z,11.30
2022-10-30T14:45:58.435Z,11.20
2022-10-30T14:48:30.364Z,10.67
2022-10-30T14:51:05.769Z,18.33
2022-10-30T14:53:51.302Z,11.23
2022-10-30T14:56:28.009Z,19.77
2022-10-30T14:59:25.262Z,9.80
2022-10-30T15:02:29.420Z,17.60
2022-10-30T15:05:15.265Z,12.70
2022-10-30T15:07:48.290Z,16.00
2022-10-30T15:10:22.112Z,20.47
2022-10-30T15:13:03.994Z,10.50
2022-10-30T15:15:32.477Z,20.33
2022-10-30T15:18:05.509Z,11.90
2022-10-30T15:20:34.606Z,11.40
2022-10-30T15:23:05.064Z,16.00
2022-10-30T15:25:36.692Z,16.03
2022-10-30T15:28:05.566Z,17.50
2022-10-30T15:30:33.744Z,18.97
2022-10-30T15:33:03.694Z,15.17
2022-10-30T15:35:32.068Z,17.47
2022-10-30T15:38:01.982Z,20.27
2022-10-30T15:40:30.795Z,28.10
2022-10-30T15:43:01.258Z,23.87
2022-10-30T15:45:33.726Z,13.30
2022-10-30T15:48:08.170Z,31.10
2022-10-30T15:50:36.666Z,17.03
2022-10-30T15:53:04.815Z,18.80
2022-10-30T15:55:33.388Z,28.53
2022-10-30T15:58:05.250Z,20.77
2022-10-30T16:00:37.579Z,27.43
2022-10-30T16:03:09.126Z,31.03
2022-10-30T16:05:37.280Z,16.23
2022-10-30T16:08:13.860Z,18.93
2022-10-30T16:10:43.024Z,13.63
2022-10-30T16:13:14.099Z,17.50
2022-10-30T16:15:42.437Z,17.83
2022-10-30T16:18:18.276Z,18.97
2022-10-30T16:20:48.644Z,23.57
2022-10-30T16:23:18.595Z,22.20
2022-10-30T16:25:47.555Z,18.83
2022-10-30T16:28:31.104Z,25.63
2022-10-30T16:31:02.032Z,14.90
2022-10-30T16:33:32.187Z,29.37
2022-10-30T16:36:01.364Z,18.60
2022-10-30T16:38:32.982Z,15.27
2022-10-30T16:41:01.270Z,19.67
2022-10-30T16:43:31.181Z,16.57
2022-10-30T16:46:32.802Z,26.20
2022-10-30T16:49:04.140Z,22.30
2022-10-30T16:51:32.382Z,23.30
2022-10-30T16:54:00.637Z,30.17
2022-10-30T16:56:30.347Z,28.53
2022-10-30T16:59:05.670Z,15.50
2022-10-30T17:01:34.239Z,15.47
2022-10-30T17:04:04.210Z,13.93
2022-10-30T17:06:39.923Z,22.00
2022-10-30T17:09:09.635Z,17.53
2022-10-30T17:11:41.362Z,27.93
2022-10-30T17:14:19.314Z,16.93
2022-10-30T17:16:56.928Z,19.93
2022-10-30T17:19:47.869Z,25.90
2022-10-30T17:22:20.436Z,15.47
2022-10-30T17:24:48.704Z,27.10
2022-10-30T17:27:29.886Z,16.93
2022-10-30T17:29:58.124Z,34.47
2022-10-30T17:32:27.863Z,31.90
2022-10-30T17:35:00.923Z,19.83
2022-10-30T17:37:29.481Z,19.50
2022-10-30T17:39:57.665Z,20.63
2022-10-30T17:42:25.749Z,16.97
2022-10-30T17:44:53.791Z,12.10
2022-10-30T17:47:23.801Z,30.87
2022-10-30T17:49:51.850Z,24.80
2022-10-30T17:52:21.952Z,23.23
2022-10-30T17:54:50.274Z,20.13
2022-10-30T17:57:18.641Z,15.80
2022-10-30T17:59:46.697Z,16.43
2022-10-30T18:02:17.013Z,16.63
2022-10-30T18:04:45.802Z,12.63
2022-10-30T18:07:15.073Z,24.97
2022-10-30T18:09:45.196Z,10.20
2022-10-30T18:12:16.230Z,22.83
2022-10-30T18:14:45.578Z,19.27
2022-10-30T18:17:13.982Z,15.80
2022-10-30T18:19:42.089Z,12.90
2022-10-30T18:22:10.902Z,37.67
2022-10-30T18:24:38.926Z,28.13
2022-10-30T18:27:08.345Z,19.33
2022-10-30T18:29:36.445Z,28.70
2022-10-30T18:32:09.436Z,24.07
2022-10-30T18:34:38.090Z,26.50
2022-10-30T18:37:06.501Z,14.73
2022-10-30T18:39:34.687Z,17.70
2022-10-30T18:42:02.741Z,31.17
2022-10-30T18:44:32.177Z,25.53
2022-10-30T18:47:03.148Z,25.60
2022-10-30T18:49:33.456Z,19.43
2022-10-30T18:52:01.518Z,16.83
2022-10-30T18:54:29.629Z,27.33
2022-10-30T18:56:57.703Z,15.27
2022-10-30T18:59:26.000Z,14.10
2022-10-30T19:01:55.755Z,17.10
2022-10-30T19:04:23.918Z,12.47
2022-10-30T19:06:52.365Z,20.63
2022-10-30T19:09:20.467Z,9.60
2022-10-30T19:11:48.543Z,13.23
2022-10-30T19:14:16.692Z,19.97
2022-10-30T19:16:45.060Z,16.77
2022-10-30T19:19:15.148Z,23.47
2022-10-30T19:21:43.271Z,11.70
2022-10-30T19:24:15.110Z,23.57
2022-10-30T19:26:43.193Z,14.20
2022-10-30T19:29:11.453Z,18.13
2022-10-30T19:31:39.845Z,17.73
2022-10-30T19:34:08.055Z,16.70
2022-10-30T19:36:38.780Z,18.50
2022-10-30T19:39:11.752Z,14.47
2022-10-30T19:41:40.135Z,16.80
2022-10-30T19:44:08.427Z,15.60
2022-10-30T19:46:36.954Z,13.47
2022-10-30T19:49:13.957Z,18.67
2022-10-30T19:51:43.463Z,19.77
2022-10-30T19:54:11.513Z,13.87
2022-10-30T19:56:39.629Z,16.10
2022-10-30T19:59:10.953Z,17.10
2022-10-30T20:01:41.372Z,13.77
2022-10-30T20:04:12.319Z,15.10
2022-10-30T20:06:40.683Z,20.90
2022-10-30T20:09:12.427Z,15.80
2022-10-30T20:11:40.650Z,10.67
2022-10-30T20:14:08.811Z,15.90
2022-10-30T20:16:37.035Z,19.00
2022-10-30T20:19:19.756Z,15.67
2022-10-30T20:21:48.079Z,17.57
2022-10-30T20:24:17.452Z,15.20
2022-10-30T20:26:45.567Z,17.47
2022-10-30T20:29:13.875Z,17.83
2022-10-30T20:31:42.034Z,12.20
2022-10-30T20:34:10.187Z,18.30
2022-10-30T20:36:38.305Z,15.77
2022-10-30T20:39:06.420Z,13.70
2022-10-30T20:41:36.550Z,22.63
2022-10-30T20:44:04.595Z,8.53
2022-10-30T20:46:32.681Z,16.03
2022-10-30T20:49:12.140Z,16.40
2022-10-30T20:51:46.707Z,11.50
2022-10-30T20:54:16.531Z,19.53
2022-10-30T20:56:46.006Z,12.37
2022-10-30T20:59:14.058Z,30.60
2022-10-30T21:01:42.294Z,54.70
2022-10-30T21:04:10.424Z,41.10
2022-10-30T21:06:38.576Z,28.20
2022-10-30T21:09:06.623Z,16.40
2022-10-30T21:11:35.771Z,26.67
2022-10-30T21:14:05.332Z,21.93
2022-10-30T21:16:33.494Z,20.40
2022-10-30T21:19:01.554Z,27.60
2022-10-30T21:21:29.707Z,20.83
2022-10-30T21:23:57.874Z,14.47
2022-10-30T21:26:26.197Z,20.37
2022-10-30T21:28:55.707Z,25.03
2022-10-30T21:31:25.248Z,25.63
2022-10-30T21:33:53.508Z,74.47
2022-10-30T21:36:21.848Z,139.33
2022-10-30T21:38:50.110Z,126.13
2022-10-30T21:41:20.318Z,273.63
2022-10-30T21:43:51.337Z,188.33
2022-10-30T21:46:19.994Z,53.93
2022-10-30T21:48:49.750Z,30.40
2022-10-30T21:51:19.887Z,26.13
2022-10-30T21:53:48.433Z,17.60
2022-10-30T21:56:18.667Z,33.30
2022-10-30T21:58:46.825Z,42.43
2022-10-30T22:01:16.513Z,30.63
2022-10-30T22:03:45.050Z,21.80
2022-10-30T22:06:16.123Z,17.47
2022-10-30T22:08:46.457Z,16.00
2022-10-30T22:11:15.065Z,24.60
2022-10-30T22:13:43.220Z,21.23
2022-10-30T22:16:13.612Z,22.27
2022-10-30T22:18:42.916Z,18.50
2022-10-30T22:21:12.830Z,19.63
2022-10-30T22:23:42.740Z,13.00
2022-10-30T22:26:13.372Z,20.33
2022-10-30T22:28:41.703Z,21.20
2022-10-30T22:31:11.957Z,17.07
2022-10-30T22:33:40.347Z,21.00
2022-10-30T22:36:09.841Z,28.23
2022-10-30T22:38:37.903Z,20.17
2022-10-30T22:41:12.244Z,25.03
2022-10-30T22:43:41.284Z,25.70
2022-10-30T22:46:09.577Z,24.73
2022-10-30T22:48:37.704Z,20.93
2022-10-30T22:51:11.781Z,15.63
2022-10-30T22:53:43.285Z,14.03
2022-10-30T22:56:17.894Z,19.10
2022-10-30T22:58:47.076Z,31.63
2022-10-30T23:01:16.660Z,13.90
2022-10-30T23:03:45.271Z,17.03
2022-10-30T23:06:14.119Z,26.13
2022-10-30T23:08:42.659Z,26.13
2022-10-30T23:11:10.871Z,21.07
2022-10-30T23:13:40.470Z,21.57
2022-10-30T23:16:12.288Z,13.07
2022-10-30T23:18:40.643Z,23.40
2022-10-30T23:21:11.157Z,21.67
2022-10-30T23:23:40.594Z,11.93
2022-10-30T23:26:11.135Z,14.27
2022-10-30T23:28:41.083Z,21.40
2022-10-30T23:31:09.396Z,19.00
2022-10-30T23:33:37.689Z,16.33
2022-10-30T23:36:06.764Z,17.20
2022-10-30T23:38:34.880Z,14.87
2022-10-30T23:41:03.131Z,17.13
2022-10-30T23:43:31.184Z,16.53
2022-10-30T23:46:00.693Z,20.17
2022-10-30T23:48:28.721Z,10.60
2022-10-30T23:50:56.845Z,19.47
2022-10-30T23:53:24.861Z,18.47
2022-10-30T23:55:53.866Z,22.23
2022-10-30T23:58:22.540Z,11.83
